Etusivu
METAR-TAF:

METAR-TAF

Lentoasemat :

Leonardo da Vincin kansainvälinen lentoasema

Rooma-Fiumicino, Italia

Leveyspiiri: 41-48N, Pituuspiiri: 012-14E, korkeus merenpinnasta: 2 m

Tämänhetkinen sää

Tämä raportti tehtiin 23 minuuttia sitten, kello 12.20 UTC
Tuuli 8 kn lännestä/lounaasta, vaihdellen etelän/lounaan ja lännen välillä
Lämpötila 16°C
Kosteus 68%
Ilmanpaine 1021 hPa
Näkyvyys 10 km tai enemmän
ei pilviä alle 1500 m:ssä eikä cumulonimbus-pilviä

METAR: LIRF 241220Z 24008KT 210V270 CAVOK 16/10 Q1021 NOSIG

Aika: 13:43 (12:43 UTC)

Sääennuste

Tämä raportti tehtiin 1 tunti ja 43 minuuttia sitten, kello 11.00 UTC
Ennuste voimassa 24. päivästä klo 12 UTC - 25. päivään klo 18 UTC
Tuuli 10 kn etelästä
Näkyvyys 10 km tai enemmän
Hajanaisia pilviä 3000 ft:n korkeudessa

TAF: LIRF 241100Z 2412/2518 18010KT 9999 SCT030

Säähavainnot ja -ennusteet yli 4000 lentoasemalta (METAR- ja TAF-raportit).

Käytössä olevat sääasemat on merkitty karttaan keltaisilla ja punaisilla pisteillä.

Aseta hiiri pisteen päälle nähdäksesi sääaseman nimen.

Klikkaa sitten nähdäksesi säähavainnot ja -ennusteet.

Kartan vaihtaminen: klikkaa mustalla rastilla varustettuja vihreitä pisteitä, niin voit zoomata sisään; viivalla varustettua vihreää pistettä, niin voit zoomata ulos tai vihreitä nuolia, niin pääset viereisille kartoille.


METAR-TAF: